createdAt,value
2022-07-31T00:01:55.528Z,19.70
2022-07-31T00:04:28.314Z,21.00
2022-07-31T00:07:01.264Z,19.60
2022-07-31T00:09:49.093Z,19.80
2022-07-31T00:12:26.023Z,20.60
2022-07-31T00:14:58.255Z,19.70
2022-07-31T00:17:29.994Z,19.70
2022-07-31T00:20:02.893Z,21.30
2022-07-31T00:22:35.939Z,19.90
2022-07-31T00:25:09.137Z,19.60
2022-07-31T00:27:42.518Z,19.50
2022-07-31T00:30:17.258Z,21.60
2022-07-31T00:32:51.859Z,19.30
2022-07-31T00:35:24.049Z,20.10
2022-07-31T00:38:24.785Z,21.50
2022-07-31T00:40:49.405Z,21.50
2022-07-31T00:43:24.077Z,19.20
2022-07-31T00:45:59.865Z,19.80
2022-07-31T00:48:31.627Z,21.50
2022-07-31T00:51:06.264Z,19.30
2022-07-31T00:53:38.631Z,19.30
2022-07-31T00:56:10.983Z,19.80
2022-07-31T00:58:43.613Z,19.30
2022-07-31T01:01:15.449Z,19.30
2022-07-31T01:03:48.036Z,19.30
2022-07-31T01:06:20.827Z,19.30
2022-07-31T01:08:53.076Z,21.10
2022-07-31T01:11:32.875Z,19.20
2022-07-31T01:14:11.092Z,22.10
2022-07-31T01:16:52.460Z,19.10
2022-07-31T01:19:38.137Z,19.10
2022-07-31T01:22:58.108Z,19.10
2022-07-31T01:26:01.471Z,19.00
2022-07-31T01:29:01.342Z,19.00
2022-07-31T01:31:59.314Z,19.00
2022-07-31T01:34:33.991Z,19.00
2022-07-31T01:37:16.187Z,19.20
2022-07-31T01:40:02.122Z,18.70
2022-07-31T01:42:37.875Z,18.70
2022-07-31T01:45:11.743Z,18.80
2022-07-31T01:47:45.791Z,18.80
2022-07-31T01:50:42.702Z,18.80
2022-07-31T01:53:20.136Z,18.90
2022-07-31T01:56:02.050Z,22.00
2022-07-31T01:58:44.037Z,18.90
2022-07-31T02:01:39.913Z,18.90
2022-07-31T02:04:15.602Z,18.90
2022-07-31T02:06:49.644Z,18.90
2022-07-31T02:09:24.439Z,18.80
2022-07-31T02:11:56.971Z,18.70
2022-07-31T02:14:31.170Z,18.70
2022-07-31T02:17:03.986Z,18.70
2022-07-31T02:20:01.015Z,21.90
2022-07-31T02:22:34.021Z,18.80
2022-07-31T02:25:08.296Z,20.50
2022-07-31T02:27:55.451Z,18.70
2022-07-31T02:30:38.834Z,18.70
2022-07-31T02:33:25.789Z,18.70
2022-07-31T02:35:59.429Z,18.80
2022-07-31T02:38:34.395Z,18.80
2022-07-31T02:43:57.823Z,18.70
2022-07-31T02:46:30.911Z,18.70
2022-07-31T02:49:04.342Z,19.00
2022-07-31T02:51:39.728Z,18.50
2022-07-31T02:54:16.044Z,18.40
2022-07-31T02:56:48.922Z,18.30
2022-07-31T02:59:22.738Z,18.20
2022-07-31T03:02:04.711Z,18.10
2022-07-31T03:04:44.482Z,18.20
2022-07-31T03:07:17.578Z,18.10
2022-07-31T03:09:51.788Z,18.00
2022-07-31T03:12:52.540Z,17.90
2022-07-31T03:15:26.361Z,17.90
2022-07-31T03:18:00.058Z,17.90
2022-07-31T03:20:42.825Z,17.90
2022-07-31T03:23:16.012Z,17.80
2022-07-31T03:25:58.219Z,17.90
2022-07-31T03:28:31.014Z,17.90
2022-07-31T03:31:03.408Z,18.00
2022-07-31T03:33:36.488Z,18.20
2022-07-31T03:36:09.952Z,18.20
2022-07-31T03:38:43.979Z,18.10
2022-07-31T03:41:38.018Z,18.00
2022-07-31T03:44:11.772Z,18.00
2022-07-31T03:46:43.844Z,18.10
2022-07-31T03:49:17.782Z,18.10
2022-07-31T03:51:49.746Z,18.10
2022-07-31T03:54:22.391Z,18.10
2022-07-31T03:59:49.131Z,17.90
2022-07-31T04:02:22.028Z,18.00
2022-07-31T04:05:00.001Z,17.90
2022-07-31T04:07:34.851Z,17.90
2022-07-31T04:10:08.228Z,18.10
2022-07-31T04:15:13.500Z,18.00
2022-07-31T04:17:46.199Z,18.00
2022-07-31T04:20:22.006Z,18.00
2022-07-31T04:22:55.822Z,18.00
2022-07-31T04:25:46.347Z,17.80
2022-07-31T04:28:30.923Z,17.80
2022-07-31T04:41:38.450Z,18.20
2022-07-31T04:44:11.185Z,18.30
2022-07-31T04:47:00.651Z,18.20
2022-07-31T04:52:09.769Z,18.20
2022-07-31T04:54:42.117Z,18.20
2022-07-31T04:57:21.597Z,18.20
2022-07-31T04:59:58.985Z,18.30
2022-07-31T05:02:35.915Z,18.10
2022-07-31T05:05:09.620Z,18.00
2022-07-31T05:07:47.013Z,18.10
2022-07-31T05:10:42.200Z,18.00
2022-07-31T05:13:15.992Z,18.10
2022-07-31T05:18:22.606Z,18.30
2022-07-31T05:21:15.042Z,18.40
2022-07-31T05:24:06.195Z,18.60
2022-07-31T05:26:53.780Z,18.60
2022-07-31T05:29:25.761Z,18.70
2022-07-31T05:37:15.745Z,18.90
2022-07-31T05:39:48.434Z,19.00
2022-07-31T05:42:38.899Z,20.30
2022-07-31T05:45:28.893Z,19.20
2022-07-31T05:48:01.086Z,19.30
2022-07-31T05:50:35.819Z,19.40
2022-07-31T05:53:17.730Z,19.60
2022-07-31T05:56:12.223Z,19.70
2022-07-31T05:58:48.436Z,19.70
2022-07-31T06:01:21.275Z,19.70
2022-07-31T06:03:53.908Z,19.70
2022-07-31T06:06:29.566Z,19.90
2022-07-31T06:09:04.502Z,19.70
2022-07-31T06:11:47.510Z,19.80
2022-07-31T06:14:19.723Z,21.40
2022-07-31T06:17:09.237Z,20.00
2022-07-31T06:19:43.602Z,20.20
2022-07-31T06:22:16.983Z,20.40
2022-07-31T06:24:49.760Z,20.50
2022-07-31T06:27:34.058Z,21.30
2022-07-31T06:30:08.615Z,22.10
2022-07-31T06:32:40.675Z,21.00
2022-07-31T06:35:13.424Z,21.20
2022-07-31T06:38:05.235Z,21.60
2022-07-31T06:40:51.834Z,21.60
2022-07-31T06:43:40.639Z,23.10
2022-07-31T06:46:39.832Z,22.00
2022-07-31T06:49:57.373Z,23.10
2022-07-31T06:52:32.549Z,23.00
2022-07-31T06:55:05.741Z,22.90
2022-07-31T06:57:39.153Z,23.10
2022-07-31T07:00:19.521Z,25.00
2022-07-31T07:02:55.703Z,23.60
2022-07-31T07:05:29.827Z,25.10
2022-07-31T07:08:02.474Z,25.10
2022-07-31T07:10:36.515Z,26.10
2022-07-31T07:13:46.113Z,27.30
2022-07-31T07:16:22.221Z,27.40
2022-07-31T07:19:01.361Z,28.50
2022-07-31T07:21:34.239Z,28.80
2022-07-31T07:24:06.458Z,29.10
2022-07-31T07:26:48.905Z,29.60
2022-07-31T07:29:20.824Z,30.00
2022-07-31T07:31:53.446Z,30.60
2022-07-31T07:34:27.703Z,31.50
2022-07-31T07:36:59.605Z,31.40
2022-07-31T07:39:35.494Z,31.90
2022-07-31T07:42:07.583Z,32.70
2022-07-31T07:44:40.407Z,33.10
2022-07-31T07:47:13.175Z,32.80
2022-07-31T07:49:44.990Z,33.30
2022-07-31T07:52:46.831Z,34.30
2022-07-31T07:55:44.687Z,34.60
2022-07-31T07:58:41.125Z,33.40
2022-07-31T08:01:42.492Z,33.90
2022-07-31T08:04:23.582Z,33.00
2022-07-31T08:06:55.756Z,33.20
2022-07-31T08:09:31.385Z,34.10
2022-07-31T08:12:05.120Z,32.20
2022-07-31T08:14:56.153Z,31.80
2022-07-31T08:18:06.679Z,31.70
2022-07-31T08:20:39.894Z,30.90
2022-07-31T08:23:12.700Z,32.70
2022-07-31T08:25:51.579Z,32.00
2022-07-31T08:28:27.073Z,33.30
2022-07-31T08:31:00.408Z,32.60
2022-07-31T08:33:35.626Z,34.20
2022-07-31T08:36:09.144Z,32.80
2022-07-31T08:38:48.211Z,33.80
2022-07-31T08:41:41.005Z,32.50
2022-07-31T08:44:14.710Z,31.40
2022-07-31T08:46:47.752Z,30.40
2022-07-31T08:49:24.587Z,30.40
2022-07-31T08:51:59.282Z,30.80
2022-07-31T08:54:51.765Z,31.70
2022-07-31T08:57:27.291Z,32.00
2022-07-31T08:59:59.242Z,31.10
2022-07-31T09:02:32.935Z,34.20
2022-07-31T09:05:25.103Z,33.90
2022-07-31T09:07:59.676Z,33.20
2022-07-31T09:10:31.811Z,33.10
2022-07-31T09:13:18.018Z,34.00
2022-07-31T09:15:57.258Z,35.70
2022-07-31T09:18:29.983Z,35.20
2022-07-31T09:21:08.817Z,33.40
2022-07-31T09:23:49.086Z,34.50
2022-07-31T09:26:34.308Z,33.70
2022-07-31T09:29:12.890Z,34.70
2022-07-31T09:31:46.488Z,34.50
2022-07-31T09:34:30.956Z,32.10
2022-07-31T09:37:21.514Z,33.00
2022-07-31T09:40:12.756Z,31.80
2022-07-31T09:43:19.794Z,33.20
2022-07-31T09:46:00.171Z,33.70
2022-07-31T09:48:32.477Z,32.80
2022-07-31T09:51:08.726Z,33.70
2022-07-31T09:53:53.694Z,33.90
2022-07-31T09:57:13.795Z,34.20
2022-07-31T09:59:48.783Z,33.10
2022-07-31T10:02:22.674Z,32.90
2022-07-31T10:04:55.851Z,31.60
2022-07-31T10:07:32.879Z,33.10
2022-07-31T10:10:17.946Z,33.20
2022-07-31T10:13:03.489Z,32.90
2022-07-31T10:15:37.832Z,32.10
2022-07-31T10:18:35.638Z,31.70
2022-07-31T10:21:37.953Z,31.20
2022-07-31T10:24:23.845Z,30.80
2022-07-31T10:27:09.257Z,30.60
2022-07-31T10:29:45.955Z,31.20
2022-07-31T10:32:17.897Z,30.70
2022-07-31T10:35:17.977Z,30.80
2022-07-31T10:38:23.611Z,33.30
2022-07-31T10:41:42.376Z,31.10
2022-07-31T10:44:23.228Z,30.80
2022-07-31T10:47:17.476Z,32.00
2022-07-31T10:50:06.613Z,32.30
2022-07-31T10:53:08.245Z,31.70
2022-07-31T10:56:05.331Z,31.70
2022-07-31T10:58:58.043Z,32.80
2022-07-31T11:01:52.981Z,32.00
2022-07-31T11:04:44.378Z,32.30
2022-07-31T11:07:44.978Z,33.00
2022-07-31T11:10:53.785Z,33.60
2022-07-31T11:13:53.432Z,33.40
2022-07-31T11:16:54.205Z,34.50
2022-07-31T11:19:45.698Z,33.30
2022-07-31T11:22:30.549Z,33.40
2022-07-31T11:25:05.046Z,32.70
2022-07-31T11:27:39.137Z,32.90
2022-07-31T11:30:13.650Z,33.90
2022-07-31T11:32:50.834Z,33.70
2022-07-31T11:35:31.849Z,33.10
2022-07-31T11:38:04.118Z,34.00
2022-07-31T11:40:47.460Z,32.60
2022-07-31T11:43:25.979Z,33.40
2022-07-31T11:45:58.354Z,33.30
2022-07-31T11:48:39.016Z,32.70
2022-07-31T11:51:17.414Z,34.80
2022-07-31T11:53:57.402Z,32.50
2022-07-31T11:56:30.194Z,34.10
2022-07-31T11:59:03.176Z,32.90
2022-07-31T12:01:38.266Z,32.50
2022-07-31T12:04:18.967Z,33.60
2022-07-31T12:06:57.167Z,33.20
2022-07-31T12:10:02.671Z,33.50
2022-07-31T12:12:23.935Z,33.10
2022-07-31T12:15:00.452Z,34.00
2022-07-31T12:17:33.038Z,31.90
2022-07-31T12:20:10.591Z,33.00
2022-07-31T12:22:42.780Z,32.80
2022-07-31T12:25:15.421Z,34.10
2022-07-31T12:27:54.356Z,33.70
2022-07-31T12:30:29.975Z,34.00
2022-07-31T12:33:08.462Z,32.50
2022-07-31T12:35:54.930Z,33.80
2022-07-31T12:38:47.780Z,33.50
2022-07-31T12:41:21.122Z,33.60
2022-07-31T12:43:53.281Z,32.80
2022-07-31T12:46:38.442Z,32.70
2022-07-31T12:49:11.818Z,32.40
2022-07-31T12:51:46.848Z,32.60
2022-07-31T12:54:21.310Z,32.00
2022-07-31T12:56:53.326Z,32.70
2022-07-31T12:59:26.511Z,31.60
2022-07-31T13:01:58.457Z,32.10
2022-07-31T13:04:31.433Z,31.30
2022-07-31T13:07:04.127Z,31.30
2022-07-31T13:09:36.518Z,32.40
2022-07-31T13:12:09.683Z,31.80
2022-07-31T13:14:42.323Z,32.00
2022-07-31T13:17:14.214Z,31.80
2022-07-31T13:19:46.867Z,34.50
2022-07-31T13:22:18.621Z,33.20
2022-07-31T13:24:51.579Z,32.20
2022-07-31T13:27:23.585Z,32.40
2022-07-31T13:29:56.632Z,32.50
2022-07-31T13:32:28.492Z,33.90
2022-07-31T13:35:25.391Z,33.40
2022-07-31T13:37:54.378Z,32.80
2022-07-31T13:40:45.837Z,35.40
2022-07-31T13:43:18.773Z,33.80
2022-07-31T13:45:51.502Z,33.60
2022-07-31T13:48:24.148Z,32.80
2022-07-31T13:50:56.047Z,32.50
2022-07-31T13:53:28.734Z,31.70
2022-07-31T13:56:00.712Z,31.70
2022-07-31T13:58:33.375Z,31.90
2022-07-31T14:01:05.974Z,32.40
2022-07-31T14:03:38.759Z,33.40
2022-07-31T14:06:10.836Z,33.70
2022-07-31T14:08:49.943Z,34.20
2022-07-31T14:11:23.302Z,36.70
2022-07-31T14:13:55.998Z,34.00
2022-07-31T14:16:29.991Z,34.60
2022-07-31T14:19:01.845Z,33.20
2022-07-31T14:21:35.374Z,33.60
2022-07-31T14:24:07.442Z,33.10
2022-07-31T14:26:40.145Z,33.20
2022-07-31T14:29:12.041Z,35.60
2022-07-31T14:31:44.836Z,35.60
2022-07-31T14:34:17.207Z,34.00
2022-07-31T14:36:50.195Z,33.10
2022-07-31T14:39:22.110Z,35.40
2022-07-31T14:41:54.864Z,33.80
2022-07-31T14:44:28.652Z,33.30
2022-07-31T14:47:07.792Z,32.90
2022-07-31T14:50:09.923Z,32.50
2022-07-31T14:52:34.364Z,32.30
2022-07-31T14:55:06.774Z,32.20
2022-07-31T14:57:40.001Z,32.40
2022-07-31T15:00:13.199Z,32.80
2022-07-31T15:02:46.440Z,32.70
2022-07-31T15:06:50.914Z,33.90
2022-07-31T15:08:11.111Z,33.60
2022-07-31T15:10:43.001Z,33.60
2022-07-31T15:13:15.234Z,32.80
2022-07-31T15:15:48.476Z,33.90
2022-07-31T15:18:21.288Z,32.50
2022-07-31T15:20:58.119Z,34.50
2022-07-31T15:23:35.628Z,32.30
2022-07-31T15:26:08.463Z,32.30
2022-07-31T15:28:41.902Z,32.30
2022-07-31T15:31:13.746Z,32.00
2022-07-31T15:33:47.030Z,32.30
2022-07-31T15:36:19.110Z,32.50
2022-07-31T15:38:51.754Z,32.60
2022-07-31T15:41:23.598Z,32.70
2022-07-31T15:43:56.083Z,32.90
2022-07-31T15:46:28.211Z,32.90
2022-07-31T15:49:02.359Z,32.80
2022-07-31T15:51:35.015Z,32.60
2022-07-31T15:54:07.442Z,35.20
2022-07-31T15:56:39.865Z,32.60
2022-07-31T15:59:11.826Z,33.10
2022-07-31T16:01:44.845Z,32.60
2022-07-31T16:04:17.264Z,32.30
2022-07-31T16:06:50.644Z,33.30
2022-07-31T16:09:24.908Z,33.10
2022-07-31T16:12:03.585Z,31.70
2022-07-31T16:17:11.910Z,31.60
2022-07-31T16:19:44.954Z,31.50
2022-07-31T16:22:16.851Z,31.40
2022-07-31T16:24:51.807Z,32.50
2022-07-31T16:27:23.787Z,31.40
2022-07-31T16:29:59.391Z,32.70
2022-07-31T16:32:35.166Z,31.70
2022-07-31T16:35:09.932Z,31.70
2022-07-31T16:37:51.234Z,31.70
2022-07-31T16:40:29.709Z,33.50
2022-07-31T16:43:50.478Z,32.40
2022-07-31T16:46:01.229Z,31.50
2022-07-31T16:48:33.210Z,31.50
2022-07-31T16:51:07.143Z,32.80
2022-07-31T16:54:13.980Z,32.90
2022-07-31T16:56:31.843Z,31.80
2022-07-31T16:59:05.092Z,31.50
2022-07-31T17:01:57.218Z,31.50
2022-07-31T17:04:30.552Z,33.10
2022-07-31T17:07:03.810Z,33.10
2022-07-31T17:09:35.966Z,33.10
2022-07-31T17:12:16.001Z,31.30
2022-07-31T17:15:21.388Z,32.90
2022-07-31T17:17:54.611Z,32.10
2022-07-31T17:20:28.648Z,32.20
2022-07-31T17:23:06.334Z,33.00
2022-07-31T17:25:42.438Z,31.20
2022-07-31T17:28:16.070Z,32.10
2022-07-31T17:30:48.355Z,32.20
2022-07-31T17:36:15.571Z,31.20
2022-07-31T17:41:37.852Z,31.20
2022-07-31T17:44:11.310Z,32.50
2022-07-31T17:46:48.280Z,32.40
2022-07-31T17:49:22.074Z,31.00
2022-07-31T17:51:58.912Z,30.90
2022-07-31T17:54:33.261Z,31.00
2022-07-31T17:57:06.035Z,31.10
2022-07-31T17:59:38.047Z,31.20
2022-07-31T18:02:11.189Z,32.70
2022-07-31T18:04:45.398Z,31.30
2022-07-31T18:07:19.902Z,33.30
2022-07-31T18:09:51.847Z,31.10
2022-07-31T18:12:26.189Z,31.10
2022-07-31T18:14:58.113Z,31.20
2022-07-31T18:17:32.203Z,31.70
2022-07-31T18:20:06.105Z,31.00
2022-07-31T18:22:49.168Z,31.00
2022-07-31T18:25:22.545Z,31.10
2022-07-31T18:27:57.546Z,28.80
2022-07-31T18:30:30.769Z,30.90
2022-07-31T18:33:07.174Z,31.60
2022-07-31T18:35:39.628Z,32.30
2022-07-31T18:38:12.240Z,33.00
2022-07-31T18:40:44.380Z,30.80
2022-07-31T18:43:17.138Z,31.50
2022-07-31T18:45:49.369Z,30.60
2022-07-31T18:48:22.137Z,30.50
2022-07-31T18:51:02.052Z,30.40
2022-07-31T18:53:36.686Z,29.90
2022-07-31T18:56:08.779Z,30.30
2022-07-31T18:58:45.082Z,30.30
2022-07-31T19:01:17.053Z,31.20
2022-07-31T19:03:50.013Z,32.00
2022-07-31T19:06:25.058Z,30.20
2022-07-31T19:08:58.251Z,30.00
2022-07-31T19:11:34.102Z,29.90
2022-07-31T19:14:07.254Z,29.80
2022-07-31T19:16:39.853Z,30.00
2022-07-31T19:19:13.828Z,29.70
2022-07-31T19:21:47.263Z,29.70
2022-07-31T19:26:52.249Z,29.50
2022-07-31T19:29:24.807Z,31.90
2022-07-31T19:31:59.568Z,29.40
2022-07-31T19:34:31.592Z,30.20
2022-07-31T19:37:04.539Z,29.60
2022-07-31T19:39:40.404Z,31.10
2022-07-31T19:42:13.844Z,29.30
2022-07-31T19:44:45.674Z,29.10
2022-07-31T19:47:18.341Z,31.20
2022-07-31T19:49:52.060Z,29.00
2022-07-31T19:52:24.677Z,31.90
2022-07-31T19:54:56.895Z,28.60
2022-07-31T19:57:28.813Z,29.60
2022-07-31T20:00:01.836Z,28.20
2022-07-31T20:02:37.121Z,29.40
2022-07-31T20:05:11.031Z,28.00
2022-07-31T20:07:42.843Z,27.90
2022-07-31T20:10:15.220Z,27.80
2022-07-31T20:12:46.986Z,28.00
2022-07-31T20:15:19.658Z,27.70
2022-07-31T20:17:51.834Z,27.80
2022-07-31T20:20:23.735Z,27.80
2022-07-31T20:22:56.678Z,27.40
2022-07-31T20:25:28.490Z,27.40
2022-07-31T20:28:01.553Z,30.10
2022-07-31T20:30:33.404Z,27.20
2022-07-31T20:33:06.035Z,27.20
2022-07-31T20:35:48.412Z,27.20
2022-07-31T20:38:23.739Z,27.10
2022-07-31T20:40:56.156Z,28.00
2022-07-31T20:43:30.495Z,26.70
2022-07-31T20:46:02.782Z,27.00
2022-07-31T20:48:37.275Z,26.50
2022-07-31T20:51:13.572Z,26.50
2022-07-31T20:53:45.456Z,26.40
2022-07-31T20:56:18.622Z,26.40
2022-07-31T20:58:51.955Z,26.10
2022-07-31T21:01:26.445Z,26.10
2022-07-31T21:03:58.346Z,26.10
2022-07-31T21:06:31.071Z,29.00
2022-07-31T21:09:05.052Z,26.00
2022-07-31T21:11:36.834Z,25.90
2022-07-31T21:14:09.869Z,26.80
2022-07-31T21:16:41.690Z,27.90
2022-07-31T21:19:14.463Z,26.70
2022-07-31T21:21:46.273Z,25.50
2022-07-31T21:24:19.578Z,25.30
2022-07-31T21:26:53.745Z,25.20
2022-07-31T21:29:30.939Z,25.30
2022-07-31T21:32:03.291Z,25.20
2022-07-31T21:34:37.406Z,25.10
2022-07-31T21:37:10.953Z,25.00
2022-07-31T21:39:48.621Z,25.00
2022-07-31T21:42:21.506Z,24.90
2022-07-31T21:44:56.223Z,24.90
2022-07-31T21:47:52.691Z,24.80
2022-07-31T21:50:28.996Z,27.70
2022-07-31T21:53:02.168Z,24.70
2022-07-31T21:55:34.795Z,24.50
2022-07-31T21:58:08.073Z,24.60
2022-07-31T22:00:39.962Z,26.60
2022-07-31T22:03:12.735Z,24.50
2022-07-31T22:06:03.571Z,24.40
2022-07-31T22:08:36.059Z,24.30
2022-07-31T22:11:07.889Z,25.90
2022-07-31T22:13:40.493Z,25.30
2022-07-31T22:16:12.781Z,24.60
2022-07-31T22:18:44.925Z,24.20
2022-07-31T22:21:19.915Z,23.80
2022-07-31T22:23:51.837Z,23.80
2022-07-31T22:26:24.935Z,23.70
2022-07-31T22:28:57.230Z,23.70
2022-07-31T22:31:30.017Z,23.60
2022-07-31T22:34:02.425Z,23.70
2022-07-31T22:36:34.314Z,23.70
2022-07-31T22:39:07.035Z,23.80
2022-07-31T22:41:39.124Z,23.70
2022-07-31T22:44:15.370Z,23.70
2022-07-31T22:46:48.535Z,23.60
2022-07-31T22:49:21.921Z,23.60
2022-07-31T22:51:54.243Z,23.50
2022-07-31T22:54:26.540Z,23.30
2022-07-31T22:56:58.293Z,23.20
2022-07-31T22:59:30.859Z,26.70
2022-07-31T23:02:04.301Z,22.90
2022-07-31T23:04:37.517Z,22.70
2022-07-31T23:07:09.874Z,23.70
2022-07-31T23:09:42.614Z,22.50
2022-07-31T23:12:14.431Z,22.40
2022-07-31T23:14:46.979Z,22.50
2022-07-31T23:17:22.288Z,22.40
2022-07-31T23:19:55.721Z,23.40
2022-07-31T23:22:30.728Z,22.90
2022-07-31T23:25:07.051Z,23.00
2022-07-31T23:27:39.690Z,22.40
2022-07-31T23:30:11.514Z,22.40
2022-07-31T23:32:44.182Z,22.40
2022-07-31T23:35:16.673Z,22.40
2022-07-31T23:37:48.433Z,22.30
2022-07-31T23:40:21.031Z,22.70
2022-07-31T23:42:53.216Z,22.10
2022-07-31T23:45:25.026Z,23.80
2022-07-31T23:47:58.962Z,23.30
2022-07-31T23:50:31.685Z,21.80
2022-07-31T23:53:03.548Z,21.80
2022-07-31T23:55:41.717Z,21.80
2022-07-31T23:58:14.670Z,21.80
